sensor_id;sensor_type;location;lat;lon;timestamp;P1;durP1;ratioP1;P2;durP2;ratioP2
11924;SDS011;6022;48.768;18.608;2023-02-11T00:01:21;1.37;;;1.37;;
11924;SDS011;6022;48.768;18.608;2023-02-11T00:03:53;2.83;;;2.63;;
11924;SDS011;6022;48.768;18.608;2023-02-11T00:06:21;2.50;;;2.40;;
11924;SDS011;6022;48.768;18.608;2023-02-11T00:08:49;2.53;;;2.03;;
11924;SDS011;6022;48.768;18.608;2023-02-11T00:11:18;0.87;;;0.87;;
11924;SDS011;6022;48.768;18.608;2023-02-11T00:13:49;9.67;;;3.63;;
11924;SDS011;6022;48.768;18.608;2023-02-11T00:16:18;7.77;;;2.97;;
11924;SDS011;6022;48.768;18.608;2023-02-11T00:18:46;2.27;;;2.07;;
11924;SDS011;6022;48.768;18.608;2023-02-11T00:21:16;12.63;;;2.93;;
11924;SDS011;6022;48.768;18.608;2023-02-11T00:23:47;7.10;;;3.90;;
11924;SDS011;6022;48.768;18.608;2023-02-11T00:26:16;2.83;;;2.60;;
11924;SDS011;6022;48.768;18.608;2023-02-11T00:28:51;2.27;;;2.07;;
11924;SDS011;6022;48.768;18.608;2023-02-11T00:31:19;1.77;;;1.07;;
11924;SDS011;6022;48.768;18.608;2023-02-11T00:33:49;3.33;;;2.10;;
11924;SDS011;6022;48.768;18.608;2023-02-11T00:36:17;5.73;;;3.27;;
11924;SDS011;6022;48.768;18.608;2023-02-11T00:38:52;3.50;;;2.77;;
11924;SDS011;6022;48.768;18.608;2023-02-11T00:41:21;9.10;;;2.57;;
11924;SDS011;6022;48.768;18.608;2023-02-11T00:43:50;4.77;;;4.03;;
11924;SDS011;6022;48.768;18.608;2023-02-11T00:46:17;0.77;;;0.77;;
11924;SDS011;6022;48.768;18.608;2023-02-11T00:48:46;6.23;;;3.43;;
11924;SDS011;6022;48.768;18.608;2023-02-11T00:51:13;4.07;;;3.77;;
11924;SDS011;6022;48.768;18.608;2023-02-11T00:53:40;1.83;;;1.73;;
11924;SDS011;6022;48.768;18.608;2023-02-11T00:56:08;2.13;;;1.93;;
11924;SDS011;6022;48.768;18.608;2023-02-11T00:58:35;8.80;;;4.30;;
11924;SDS011;6022;48.768;18.608;2023-02-11T01:01:02;1.73;;;1.63;;
11924;SDS011;6022;48.768;18.608;2023-02-11T01:03:30;13.43;;;4.70;;
11924;SDS011;6022;48.768;18.608;2023-02-11T01:05:58;2.37;;;1.67;;
11924;SDS011;6022;48.768;18.608;2023-02-11T01:08:25;6.40;;;3.60;;
11924;SDS011;6022;48.768;18.608;2023-02-11T01:10:56;9.70;;;3.73;;
11924;SDS011;6022;48.768;18.608;2023-02-11T01:13:26;6.93;;;3.40;;
11924;SDS011;6022;48.768;18.608;2023-02-11T01:15:57;3.47;;;2.27;;
11924;SDS011;6022;48.768;18.608;2023-02-11T01:18:27;4.03;;;2.33;;
11924;SDS011;6022;48.768;18.608;2023-02-11T01:20:54;3.23;;;2.23;;
11924;SDS011;6022;48.768;18.608;2023-02-11T01:23:22;3.47;;;3.17;;
11924;SDS011;6022;48.768;18.608;2023-02-11T01:25:49;3.07;;;2.47;;
11924;SDS011;6022;48.768;18.608;2023-02-11T01:28:18;2.53;;;2.37;;
11924;SDS011;6022;48.768;18.608;2023-02-11T01:30:50;1.77;;;1.70;;
11924;SDS011;6022;48.768;18.608;2023-02-11T01:33:22;3.73;;;3.03;;
11924;SDS011;6022;48.768;18.608;2023-02-11T01:35:58;1.07;;;1.07;;
11924;SDS011;6022;48.768;18.608;2023-02-11T01:38:29;6.33;;;3.07;;
11924;SDS011;6022;48.768;18.608;2023-02-11T01:40:59;3.00;;;2.80;;
11924;SDS011;6022;48.768;18.608;2023-02-11T01:43:44;16.00;;;4.70;;
11924;SDS011;6022;48.768;18.608;2023-02-11T01:46:31;1.53;;;1.43;;
11924;SDS011;6022;48.768;18.608;2023-02-11T01:49:11;3.13;;;2.37;;
11924;SDS011;6022;48.768;18.608;2023-02-11T01:54:52;3.80;;;3.17;;
11924;SDS011;6022;48.768;18.608;2023-02-11T01:57:44;3.33;;;2.87;;
11924;SDS011;6022;48.768;18.608;2023-02-11T02:02:51;2.40;;;2.23;;
11924;SDS011;6022;48.768;18.608;2023-02-11T02:05:37;2.70;;;2.37;;
11924;SDS011;6022;48.768;18.608;2023-02-11T02:11:15;3.43;;;3.13;;
11924;SDS011;6022;48.768;18.608;2023-02-11T02:13:43;6.80;;;3.83;;
11924;SDS011;6022;48.768;18.608;2023-02-11T02:16:12;7.10;;;3.40;;
11924;SDS011;6022;48.768;18.608;2023-02-11T02:18:48;3.30;;;3.10;;
11924;SDS011;6022;48.768;18.608;2023-02-11T02:27:52;2.83;;;2.50;;
11924;SDS011;6022;48.768;18.608;2023-02-11T02:34:18;0.43;;;0.43;;
11924;SDS011;6022;48.768;18.608;2023-02-11T02:37:03;1.70;;;1.60;;
11924;SDS011;6022;48.768;18.608;2023-02-11T02:39:41;4.17;;;2.40;;
11924;SDS011;6022;48.768;18.608;2023-02-11T02:42:13;2.33;;;1.40;;
11924;SDS011;6022;48.768;18.608;2023-02-11T02:44:46;2.00;;;1.90;;
11924;SDS011;6022;48.768;18.608;2023-02-11T02:47:18;2.27;;;2.17;;
11924;SDS011;6022;48.768;18.608;2023-02-11T02:49:46;6.10;;;2.03;;
11924;SDS011;6022;48.768;18.608;2023-02-11T03:00:37;3.03;;;1.77;;
11924;SDS011;6022;48.768;18.608;2023-02-11T03:09:23;1.77;;;1.67;;
11924;SDS011;6022;48.768;18.608;2023-02-11T03:12:05;3.47;;;2.43;;
11924;SDS011;6022;48.768;18.608;2023-02-11T03:14:35;0.13;;;0.13;;
11924;SDS011;6022;48.768;18.608;2023-02-11T03:17:05;2.80;;;0.80;;
11924;SDS011;6022;48.768;18.608;2023-02-11T03:22:48;1.70;;;1.63;;
11924;SDS011;6022;48.768;18.608;2023-02-11T03:25:36;2.27;;;1.80;;
11924;SDS011;6022;48.768;18.608;2023-02-11T03:28:13;1.73;;;1.60;;
11924;SDS011;6022;48.768;18.608;2023-02-11T03:30:55;2.80;;;2.43;;
11924;SDS011;6022;48.768;18.608;2023-02-11T03:39:23;3.97;;;1.13;;
11924;SDS011;6022;48.768;18.608;2023-02-11T03:41:57;3.13;;;2.93;;
11924;SDS011;6022;48.768;18.608;2023-02-11T03:44:31;1.47;;;1.43;;
11924;SDS011;6022;48.768;18.608;2023-02-11T03:47:06;1.37;;;1.03;;
11924;SDS011;6022;48.768;18.608;2023-02-11T03:49:38;3.57;;;3.27;;
11924;SDS011;6022;48.768;18.608;2023-02-11T03:52:08;1.90;;;0.90;;
11924;SDS011;6022;48.768;18.608;2023-02-11T03:54:39;1.60;;;1.50;;
11924;SDS011;6022;48.768;18.608;2023-02-11T03:57:11;3.83;;;2.30;;
11924;SDS011;6022;48.768;18.608;2023-02-11T03:59:55;5.87;;;3.13;;
11924;SDS011;6022;48.768;18.608;2023-02-11T04:02:26;3.43;;;2.53;;
11924;SDS011;6022;48.768;18.608;2023-02-11T04:04:57;2.17;;;1.40;;
11924;SDS011;6022;48.768;18.608;2023-02-11T04:07:24;4.43;;;3.57;;
11924;SDS011;6022;48.768;18.608;2023-02-11T04:09:52;0.93;;;0.73;;
11924;SDS011;6022;48.768;18.608;2023-02-11T04:12:19;0.73;;;0.73;;
11924;SDS011;6022;48.768;18.608;2023-02-11T04:14:47;2.90;;;1.27;;
11924;SDS011;6022;48.768;18.608;2023-02-11T04:17:14;1.77;;;1.67;;
11924;SDS011;6022;48.768;18.608;2023-02-11T04:19:42;3.17;;;1.80;;
11924;SDS011;6022;48.768;18.608;2023-02-11T04:22:10;5.03;;;3.80;;
11924;SDS011;6022;48.768;18.608;2023-02-11T04:24:38;2.93;;;2.47;;
11924;SDS011;6022;48.768;18.608;2023-02-11T04:27:05;2.50;;;2.40;;
11924;SDS011;6022;48.768;18.608;2023-02-11T04:29:32;4.67;;;2.77;;
11924;SDS011;6022;48.768;18.608;2023-02-11T04:32:00;2.07;;;1.97;;
11924;SDS011;6022;48.768;18.608;2023-02-11T04:34:27;5.90;;;2.10;;
11924;SDS011;6022;48.768;18.608;2023-02-11T04:36:54;5.00;;;2.33;;
11924;SDS011;6022;48.768;18.608;2023-02-11T04:42:22;1.30;;;1.20;;
11924;SDS011;6022;48.768;18.608;2023-02-11T04:44:49;1.40;;;1.30;;
11924;SDS011;6022;48.768;18.608;2023-02-11T04:47:17;0.77;;;0.77;;
11924;SDS011;6022;48.768;18.608;2023-02-11T04:49:44;1.80;;;1.50;;
11924;SDS011;6022;48.768;18.608;2023-02-11T04:52:11;6.27;;;4.20;;
11924;SDS011;6022;48.768;18.608;2023-02-11T04:54:38;1.53;;;1.40;;
11924;SDS011;6022;48.768;18.608;2023-02-11T04:57:06;1.90;;;1.77;;
11924;SDS011;6022;48.768;18.608;2023-02-11T04:59:33;5.10;;;1.73;;
11924;SDS011;6022;48.768;18.608;2023-02-11T05:02:00;3.77;;;2.03;;
11924;SDS011;6022;48.768;18.608;2023-02-11T05:04:29;4.40;;;2.43;;
11924;SDS011;6022;48.768;18.608;2023-02-11T05:06:57;5.27;;;2.50;;
11924;SDS011;6022;48.768;18.608;2023-02-11T05:09:24;3.30;;;2.30;;
11924;SDS011;6022;48.768;18.608;2023-02-11T05:11:51;3.70;;;2.17;;
11924;SDS011;6022;48.768;18.608;2023-02-11T05:14:19;2.37;;;0.97;;
11924;SDS011;6022;48.768;18.608;2023-02-11T05:16:46;3.30;;;2.87;;
11924;SDS011;6022;48.768;18.608;2023-02-11T05:19:14;4.90;;;3.40;;
11924;SDS011;6022;48.768;18.608;2023-02-11T05:22:16;3.17;;;2.13;;
11924;SDS011;6022;48.768;18.608;2023-02-11T05:24:44;3.80;;;1.70;;
11924;SDS011;6022;48.768;18.608;2023-02-11T05:27:11;3.10;;;2.90;;
11924;SDS011;6022;48.768;18.608;2023-02-11T05:29:38;1.17;;;1.17;;
11924;SDS011;6022;48.768;18.608;2023-02-11T05:32:05;10.87;;;2.17;;
11924;SDS011;6022;48.768;18.608;2023-02-11T05:34:34;1.33;;;1.23;;
11924;SDS011;6022;48.768;18.608;2023-02-11T05:37:07;2.37;;;2.27;;
11924;SDS011;6022;48.768;18.608;2023-02-11T05:39:35;1.57;;;1.47;;
11924;SDS011;6022;48.768;18.608;2023-02-11T05:42:02;0.23;;;0.23;;
11924;SDS011;6022;48.768;18.608;2023-02-11T05:44:29;1.50;;;1.40;;
11924;SDS011;6022;48.768;18.608;2023-02-11T05:46:57;1.87;;;1.23;;
11924;SDS011;6022;48.768;18.608;2023-02-11T05:49:24;1.60;;;1.57;;
11924;SDS011;6022;48.768;18.608;2023-02-11T05:51:51;1.77;;;1.67;;
11924;SDS011;6022;48.768;18.608;2023-02-11T05:54:18;3.43;;;1.67;;
11924;SDS011;6022;48.768;18.608;2023-02-11T05:56:45;2.40;;;2.27;;
11924;SDS011;6022;48.768;18.608;2023-02-11T05:59:13;3.17;;;1.80;;
11924;SDS011;6022;48.768;18.608;2023-02-11T06:01:41;2.30;;;1.90;;
11924;SDS011;6022;48.768;18.608;2023-02-11T06:04:11;1.40;;;1.13;;
11924;SDS011;6022;48.768;18.608;2023-02-11T06:06:39;0.60;;;0.60;;
11924;SDS011;6022;48.768;18.608;2023-02-11T06:09:06;5.67;;;3.47;;
11924;SDS011;6022;48.768;18.608;2023-02-11T06:11:35;7.33;;;3.80;;
11924;SDS011;6022;48.768;18.608;2023-02-11T06:14:04;1.50;;;0.73;;
11924;SDS011;6022;48.768;18.608;2023-02-11T06:16:32;1.63;;;1.53;;
11924;SDS011;6022;48.768;18.608;2023-02-11T06:18:59;1.27;;;1.17;;
11924;SDS011;6022;48.768;18.608;2023-02-11T06:21:34;2.50;;;2.37;;
11924;SDS011;6022;48.768;18.608;2023-02-11T06:24:09;1.27;;;1.27;;
11924;SDS011;6022;48.768;18.608;2023-02-11T06:26:37;1.77;;;0.97;;
11924;SDS011;6022;48.768;18.608;2023-02-11T06:29:04;0.87;;;0.87;;
11924;SDS011;6022;48.768;18.608;2023-02-11T06:31:32;2.60;;;0.97;;
11924;SDS011;6022;48.768;18.608;2023-02-11T06:33:59;2.93;;;2.63;;
11924;SDS011;6022;48.768;18.608;2023-02-11T06:36:27;5.63;;;2.53;;
11924;SDS011;6022;48.768;18.608;2023-02-11T06:38:54;0.27;;;0.27;;
11924;SDS011;6022;48.768;18.608;2023-02-11T06:41:21;1.90;;;1.43;;
11924;SDS011;6022;48.768;18.608;2023-02-11T06:43:49;0.50;;;0.50;;
11924;SDS011;6022;48.768;18.608;2023-02-11T06:46:20;1.80;;;0.97;;
11924;SDS011;6022;48.768;18.608;2023-02-11T06:48:49;1.30;;;1.30;;
11924;SDS011;6022;48.768;18.608;2023-02-11T06:51:24;4.10;;;2.50;;
11924;SDS011;6022;48.768;18.608;2023-02-11T06:53:54;3.23;;;1.60;;
11924;SDS011;6022;48.768;18.608;2023-02-11T06:56:21;5.50;;;2.40;;
11924;SDS011;6022;48.768;18.608;2023-02-11T06:58:53;1.40;;;1.40;;
11924;SDS011;6022;48.768;18.608;2023-02-11T07:01:23;6.03;;;2.70;;
11924;SDS011;6022;48.768;18.608;2023-02-11T07:03:51;2.07;;;1.90;;
11924;SDS011;6022;48.768;18.608;2023-02-11T07:06:20;5.57;;;2.40;;
11924;SDS011;6022;48.768;18.608;2023-02-11T07:08:51;1.50;;;1.40;;
11924;SDS011;6022;48.768;18.608;2023-02-11T07:11:23;0.37;;;0.37;;
11924;SDS011;6022;48.768;18.608;2023-02-11T07:13:54;3.93;;;1.90;;
11924;SDS011;6022;48.768;18.608;2023-02-11T07:16:29;0.63;;;0.63;;
11924;SDS011;6022;48.768;18.608;2023-02-11T07:18:57;1.30;;;1.20;;
11924;SDS011;6022;48.768;18.608;2023-02-11T07:21:25;2.40;;;1.63;;
11924;SDS011;6022;48.768;18.608;2023-02-11T07:23:52;5.70;;;2.13;;
11924;SDS011;6022;48.768;18.608;2023-02-11T07:26:20;5.80;;;2.33;;
11924;SDS011;6022;48.768;18.608;2023-02-11T07:28:49;0.93;;;0.93;;
11924;SDS011;6022;48.768;18.608;2023-02-11T07:31:22;2.47;;;2.27;;
11924;SDS011;6022;48.768;18.608;2023-02-11T07:33:53;2.53;;;2.00;;
11924;SDS011;6022;48.768;18.608;2023-02-11T07:36:25;2.47;;;1.90;;
11924;SDS011;6022;48.768;18.608;2023-02-11T07:38:56;1.90;;;1.47;;
11924;SDS011;6022;48.768;18.608;2023-02-11T07:41:24;5.33;;;2.43;;
11924;SDS011;6022;48.768;18.608;2023-02-11T07:43:52;1.20;;;1.20;;
11924;SDS011;6022;48.768;18.608;2023-02-11T07:48:54;5.10;;;2.10;;
11924;SDS011;6022;48.768;18.608;2023-02-11T07:51:23;2.43;;;2.27;;
11924;SDS011;6022;48.768;18.608;2023-02-11T07:53:54;1.73;;;1.43;;
11924;SDS011;6022;48.768;18.608;2023-02-11T07:56:24;1.23;;;1.17;;
11924;SDS011;6022;48.768;18.608;2023-02-11T07:58:54;4.23;;;2.67;;
11924;SDS011;6022;48.768;18.608;2023-02-11T08:01:25;3.80;;;2.37;;
11924;SDS011;6022;48.768;18.608;2023-02-11T08:03:54;5.97;;;1.77;;
11924;SDS011;6022;48.768;18.608;2023-02-11T08:06:24;3.20;;;1.60;;
11924;SDS011;6022;48.768;18.608;2023-02-11T08:08:54;2.13;;;2.03;;
11924;SDS011;6022;48.768;18.608;2023-02-11T08:11:23;1.60;;;1.53;;
11924;SDS011;6022;48.768;18.608;2023-02-11T08:13:54;6.53;;;3.23;;
11924;SDS011;6022;48.768;18.608;2023-02-11T08:16:26;2.33;;;1.63;;
11924;SDS011;6022;48.768;18.608;2023-02-11T08:19:00;2.73;;;2.50;;
11924;SDS011;6022;48.768;18.608;2023-02-11T08:21:32;3.17;;;2.50;;
11924;SDS011;6022;48.768;18.608;2023-02-11T08:24:00;2.90;;;2.57;;
11924;SDS011;6022;48.768;18.608;2023-02-11T08:26:29;2.80;;;2.67;;
11924;SDS011;6022;48.768;18.608;2023-02-11T08:29:00;2.17;;;2.07;;
11924;SDS011;6022;48.768;18.608;2023-02-11T08:31:33;2.83;;;2.00;;
11924;SDS011;6022;48.768;18.608;2023-02-11T08:34:05;1.90;;;1.70;;
11924;SDS011;6022;48.768;18.608;2023-02-11T08:36:35;1.43;;;1.33;;
11924;SDS011;6022;48.768;18.608;2023-02-11T08:39:06;3.67;;;3.37;;
11924;SDS011;6022;48.768;18.608;2023-02-11T08:41:46;3.67;;;3.37;;
11924;SDS011;6022;48.768;18.608;2023-02-11T08:44:19;5.03;;;3.53;;
11924;SDS011;6022;48.768;18.608;2023-02-11T08:46:48;3.87;;;2.93;;
11924;SDS011;6022;48.768;18.608;2023-02-11T08:49:23;1.53;;;1.43;;
11924;SDS011;6022;48.768;18.608;2023-02-11T08:51:51;4.47;;;3.07;;
11924;SDS011;6022;48.768;18.608;2023-02-11T08:54:19;4.93;;;4.40;;
11924;SDS011;6022;48.768;18.608;2023-02-11T08:56:50;2.27;;;2.03;;
11924;SDS011;6022;48.768;18.608;2023-02-11T08:59:20;15.63;;;3.40;;
11924;SDS011;6022;48.768;18.608;2023-02-11T09:01:51;1.80;;;1.73;;
11924;SDS011;6022;48.768;18.608;2023-02-11T09:04:28;4.30;;;2.63;;
11924;SDS011;6022;48.768;18.608;2023-02-11T09:06:55;4.33;;;2.43;;
11924;SDS011;6022;48.768;18.608;2023-02-11T09:09:25;2.17;;;2.03;;
11924;SDS011;6022;48.768;18.608;2023-02-11T09:11:53;3.07;;;2.87;;
11924;SDS011;6022;48.768;18.608;2023-02-11T09:14:33;2.70;;;2.50;;
11924;SDS011;6022;48.768;18.608;2023-02-11T09:17:12;2.47;;;2.30;;
11924;SDS011;6022;48.768;18.608;2023-02-11T09:19:44;8.43;;;3.03;;
11924;SDS011;6022;48.768;18.608;2023-02-11T09:22:12;3.60;;;3.07;;
11924;SDS011;6022;48.768;18.608;2023-02-11T09:24:42;3.37;;;3.07;;
11924;SDS011;6022;48.768;18.608;2023-02-11T09:27:09;4.20;;;3.87;;
11924;SDS011;6022;48.768;18.608;2023-02-11T09:29:37;2.57;;;1.70;;
11924;SDS011;6022;48.768;18.608;2023-02-11T09:32:05;9.53;;;4.67;;
11924;SDS011;6022;48.768;18.608;2023-02-11T09:34:38;5.50;;;4.33;;
11924;SDS011;6022;48.768;18.608;2023-02-11T09:37:11;5.33;;;4.83;;
11924;SDS011;6022;48.768;18.608;2023-02-11T09:39:38;10.57;;;3.27;;
11924;SDS011;6022;48.768;18.608;2023-02-11T09:42:16;3.63;;;2.77;;
11924;SDS011;6022;48.768;18.608;2023-02-11T09:45:19;6.50;;;2.80;;
11924;SDS011;6022;48.768;18.608;2023-02-11T09:48:01;5.60;;;4.23;;
11924;SDS011;6022;48.768;18.608;2023-02-11T09:53:23;10.20;;;3.73;;
11924;SDS011;6022;48.768;18.608;2023-02-11T09:55:58;5.90;;;4.37;;
11924;SDS011;6022;48.768;18.608;2023-02-11T09:58:37;4.30;;;3.90;;
11924;SDS011;6022;48.768;18.608;2023-02-11T10:04:00;4.43;;;3.13;;
11924;SDS011;6022;48.768;18.608;2023-02-11T10:06:47;7.07;;;4.53;;
11924;SDS011;6022;48.768;18.608;2023-02-11T10:09:55;6.43;;;3.90;;
11924;SDS011;6022;48.768;18.608;2023-02-11T10:24:54;7.37;;;4.00;;
11924;SDS011;6022;48.768;18.608;2023-02-11T10:27:34;7.27;;;4.60;;
11924;SDS011;6022;48.768;18.608;2023-02-11T10:30:05;6.53;;;4.93;;
11924;SDS011;6022;48.768;18.608;2023-02-11T10:32:53;10.73;;;5.20;;
11924;SDS011;6022;48.768;18.608;2023-02-11T10:35:47;7.70;;;4.93;;
11924;SDS011;6022;48.768;18.608;2023-02-11T10:38:15;3.63;;;3.30;;
11924;SDS011;6022;48.768;18.608;2023-02-11T10:40:42;4.33;;;3.30;;
11924;SDS011;6022;48.768;18.608;2023-02-11T10:43:11;10.00;;;5.83;;
11924;SDS011;6022;48.768;18.608;2023-02-11T10:45:43;7.93;;;5.27;;
11924;SDS011;6022;48.768;18.608;2023-02-11T10:48:36;12.37;;;6.73;;
11924;SDS011;6022;48.768;18.608;2023-02-11T10:51:11;3.30;;;3.00;;
11924;SDS011;6022;48.768;18.608;2023-02-11T10:56:34;6.83;;;4.27;;
11924;SDS011;6022;48.768;18.608;2023-02-11T10:59:34;7.67;;;5.27;;
11924;SDS011;6022;48.768;18.608;2023-02-11T11:02:22;5.83;;;4.80;;
11924;SDS011;6022;48.768;18.608;2023-02-11T11:05:02;6.30;;;5.07;;
11924;SDS011;6022;48.768;18.608;2023-02-11T11:08:14;7.23;;;3.80;;
11924;SDS011;6022;48.768;18.608;2023-02-11T11:11:02;5.63;;;2.93;;
11924;SDS011;6022;48.768;18.608;2023-02-11T11:13:36;8.13;;;5.63;;
11924;SDS011;6022;48.768;18.608;2023-02-11T11:16:25;6.20;;;5.17;;
11924;SDS011;6022;48.768;18.608;2023-02-11T11:24:31;7.70;;;4.27;;
11924;SDS011;6022;48.768;18.608;2023-02-11T11:27:20;7.63;;;5.53;;
11924;SDS011;6022;48.768;18.608;2023-02-11T11:29:57;9.57;;;5.33;;
11924;SDS011;6022;48.768;18.608;2023-02-11T11:32:27;6.60;;;5.63;;
11924;SDS011;6022;48.768;18.608;2023-02-11T11:35:06;5.63;;;4.87;;
11924;SDS011;6022;48.768;18.608;2023-02-11T11:38:05;8.33;;;3.80;;
11924;SDS011;6022;48.768;18.608;2023-02-11T11:40:43;4.67;;;4.07;;
11924;SDS011;6022;48.768;18.608;2023-02-11T11:43:16;7.50;;;4.37;;
11924;SDS011;6022;48.768;18.608;2023-02-11T11:45:52;6.07;;;4.13;;
11924;SDS011;6022;48.768;18.608;2023-02-11T11:48:36;3.83;;;3.20;;
11924;SDS011;6022;48.768;18.608;2023-02-11T11:51:11;5.47;;;4.23;;
11924;SDS011;6022;48.768;18.608;2023-02-11T11:56:57;7.03;;;4.40;;
11924;SDS011;6022;48.768;18.608;2023-02-11T11:59:44;12.23;;;4.77;;
11924;SDS011;6022;48.768;18.608;2023-02-11T12:10:35;5.57;;;3.97;;
11924;SDS011;6022;48.768;18.608;2023-02-11T12:13:48;9.93;;;6.50;;
11924;SDS011;6022;48.768;18.608;2023-02-11T12:26:01;10.70;;;4.83;;
11924;SDS011;6022;48.768;18.608;2023-02-11T12:44:39;6.93;;;3.97;;
11924;SDS011;6022;48.768;18.608;2023-02-11T12:51:00;5.97;;;4.53;;
11924;SDS011;6022;48.768;18.608;2023-02-11T12:54:06;8.73;;;5.07;;
11924;SDS011;6022;48.768;18.608;2023-02-11T13:02:42;5.37;;;4.87;;
11924;SDS011;6022;48.768;18.608;2023-02-11T13:05:39;8.93;;;6.67;;
11924;SDS011;6022;48.768;18.608;2023-02-11T13:11:19;11.63;;;4.97;;
11924;SDS011;6022;48.768;18.608;2023-02-11T13:16:45;4.00;;;3.27;;
11924;SDS011;6022;48.768;18.608;2023-02-11T13:22:33;4.60;;;3.47;;
11924;SDS011;6022;48.768;18.608;2023-02-11T13:25:23;4.53;;;4.10;;
11924;SDS011;6022;48.768;18.608;2023-02-11T13:28:37;4.70;;;3.50;;
11924;SDS011;6022;48.768;18.608;2023-02-11T13:32:07;7.93;;;4.00;;
11924;SDS011;6022;48.768;18.608;2023-02-11T13:37:21;6.43;;;4.10;;
11924;SDS011;6022;48.768;18.608;2023-02-11T13:40:21;4.37;;;3.87;;
11924;SDS011;6022;48.768;18.608;2023-02-11T13:42:52;8.60;;;5.80;;
11924;SDS011;6022;48.768;18.608;2023-02-11T13:45:33;6.70;;;4.27;;
11924;SDS011;6022;48.768;18.608;2023-02-11T13:48:15;4.30;;;3.50;;
11924;SDS011;6022;48.768;18.608;2023-02-11T13:51:14;7.33;;;5.00;;
11924;SDS011;6022;48.768;18.608;2023-02-11T13:56:30;4.63;;;3.87;;
11924;SDS011;6022;48.768;18.608;2023-02-11T13:59:42;8.23;;;5.43;;
11924;SDS011;6022;48.768;18.608;2023-02-11T14:16:17;7.17;;;4.20;;
11924;SDS011;6022;48.768;18.608;2023-02-11T14:19:03;3.67;;;2.90;;
11924;SDS011;6022;48.768;18.608;2023-02-11T14:21:33;4.17;;;2.73;;
11924;SDS011;6022;48.768;18.608;2023-02-11T14:39:01;5.10;;;3.03;;
11924;SDS011;6022;48.768;18.608;2023-02-11T14:41:42;5.23;;;4.57;;
11924;SDS011;6022;48.768;18.608;2023-02-11T14:44:36;7.90;;;3.37;;
11924;SDS011;6022;48.768;18.608;2023-02-11T14:47:10;7.03;;;2.97;;
11924;SDS011;6022;48.768;18.608;2023-02-11T14:49:46;10.73;;;4.50;;
11924;SDS011;6022;48.768;18.608;2023-02-11T14:55:17;8.43;;;4.63;;
11924;SDS011;6022;48.768;18.608;2023-02-11T14:58:04;8.67;;;4.20;;
11924;SDS011;6022;48.768;18.608;2023-02-11T15:00:49;9.77;;;4.50;;
11924;SDS011;6022;48.768;18.608;2023-02-11T15:06:22;9.77;;;6.07;;
11924;SDS011;6022;48.768;18.608;2023-02-11T15:08:54;3.27;;;3.00;;
11924;SDS011;6022;48.768;18.608;2023-02-11T15:11:53;9.80;;;4.07;;
11924;SDS011;6022;48.768;18.608;2023-02-11T15:14:26;4.47;;;3.90;;
11924;SDS011;6022;48.768;18.608;2023-02-11T15:17:11;5.57;;;3.17;;
11924;SDS011;6022;48.768;18.608;2023-02-11T15:19:47;5.43;;;4.87;;
11924;SDS011;6022;48.768;18.608;2023-02-11T15:22:23;8.17;;;4.53;;
11924;SDS011;6022;48.768;18.608;2023-02-11T15:25:11;4.67;;;3.07;;
11924;SDS011;6022;48.768;18.608;2023-02-11T15:27:55;7.43;;;5.50;;
11924;SDS011;6022;48.768;18.608;2023-02-11T15:30:40;7.60;;;5.40;;
11924;SDS011;6022;48.768;18.608;2023-02-11T15:33:18;10.73;;;4.80;;
11924;SDS011;6022;48.768;18.608;2023-02-11T15:35:56;9.00;;;5.40;;
11924;SDS011;6022;48.768;18.608;2023-02-11T15:38:33;10.63;;;5.87;;
11924;SDS011;6022;48.768;18.608;2023-02-11T15:44:31;7.33;;;4.00;;
11924;SDS011;6022;48.768;18.608;2023-02-11T15:47:37;5.43;;;3.50;;
11924;SDS011;6022;48.768;18.608;2023-02-11T15:50:30;6.80;;;5.03;;
11924;SDS011;6022;48.768;18.608;2023-02-11T15:56:41;8.67;;;3.87;;
11924;SDS011;6022;48.768;18.608;2023-02-11T15:59:10;7.17;;;3.77;;
11924;SDS011;6022;48.768;18.608;2023-02-11T16:02:04;6.97;;;4.07;;
11924;SDS011;6022;48.768;18.608;2023-02-11T16:05:04;8.50;;;3.67;;
11924;SDS011;6022;48.768;18.608;2023-02-11T16:07:53;7.80;;;6.47;;
11924;SDS011;6022;48.768;18.608;2023-02-11T16:15:48;9.33;;;6.70;;
11924;SDS011;6022;48.768;18.608;2023-02-11T16:18:27;3.40;;;3.13;;
11924;SDS011;6022;48.768;18.608;2023-02-11T16:21:32;4.20;;;3.43;;
11924;SDS011;6022;48.768;18.608;2023-02-11T16:24:30;12.23;;;7.10;;
11924;SDS011;6022;48.768;18.608;2023-02-11T16:27:02;12.67;;;5.63;;
11924;SDS011;6022;48.768;18.608;2023-02-11T16:29:46;8.50;;;4.43;;
11924;SDS011;6022;48.768;18.608;2023-02-11T16:34:50;5.90;;;4.00;;
11924;SDS011;6022;48.768;18.608;2023-02-11T16:37:31;7.37;;;3.93;;
11924;SDS011;6022;48.768;18.608;2023-02-11T16:40:00;10.90;;;5.73;;
11924;SDS011;6022;48.768;18.608;2023-02-11T16:42:43;5.67;;;4.40;;
11924;SDS011;6022;48.768;18.608;2023-02-11T16:45:14;5.47;;;3.17;;
11924;SDS011;6022;48.768;18.608;2023-02-11T16:47:42;8.20;;;5.67;;
11924;SDS011;6022;48.768;18.608;2023-02-11T16:50:19;10.07;;;3.97;;
11924;SDS011;6022;48.768;18.608;2023-02-11T16:52:50;8.73;;;4.47;;
11924;SDS011;6022;48.768;18.608;2023-02-11T16:55:25;11.23;;;4.67;;
11924;SDS011;6022;48.768;18.608;2023-02-11T16:58:00;6.70;;;5.07;;
11924;SDS011;6022;48.768;18.608;2023-02-11T17:00:28;8.40;;;5.50;;
11924;SDS011;6022;48.768;18.608;2023-02-11T17:02:56;8.83;;;5.10;;
11924;SDS011;6022;48.768;18.608;2023-02-11T17:05:23;10.23;;;5.30;;
11924;SDS011;6022;48.768;18.608;2023-02-11T17:07:54;7.90;;;5.77;;
11924;SDS011;6022;48.768;18.608;2023-02-11T17:10:39;9.40;;;6.20;;
11924;SDS011;6022;48.768;18.608;2023-02-11T17:13:08;8.80;;;5.23;;
11924;SDS011;6022;48.768;18.608;2023-02-11T17:15:36;8.93;;;6.03;;
11924;SDS011;6022;48.768;18.608;2023-02-11T17:18:16;7.47;;;4.10;;
11924;SDS011;6022;48.768;18.608;2023-02-11T17:20:58;6.63;;;3.90;;
11924;SDS011;6022;48.768;18.608;2023-02-11T17:23:27;9.90;;;4.40;;
11924;SDS011;6022;48.768;18.608;2023-02-11T17:25:55;5.67;;;3.47;;
11924;SDS011;6022;48.768;18.608;2023-02-11T17:28:41;10.17;;;4.53;;
11924;SDS011;6022;48.768;18.608;2023-02-11T17:31:16;8.13;;;4.47;;
11924;SDS011;6022;48.768;18.608;2023-02-11T17:33:49;6.67;;;3.30;;
11924;SDS011;6022;48.768;18.608;2023-02-11T17:36:40;6.07;;;4.27;;
11924;SDS011;6022;48.768;18.608;2023-02-11T17:39:18;6.87;;;4.87;;
11924;SDS011;6022;48.768;18.608;2023-02-11T17:41:50;11.37;;;5.23;;
11924;SDS011;6022;48.768;18.608;2023-02-11T17:44:18;5.97;;;3.37;;
11924;SDS011;6022;48.768;18.608;2023-02-11T17:46:46;9.53;;;4.27;;
11924;SDS011;6022;48.768;18.608;2023-02-11T17:49:20;6.57;;;4.70;;
11924;SDS011;6022;48.768;18.608;2023-02-11T17:52:05;3.90;;;3.23;;
11924;SDS011;6022;48.768;18.608;2023-02-11T17:54:41;7.23;;;3.90;;
11924;SDS011;6022;48.768;18.608;2023-02-11T17:57:12;4.77;;;3.07;;
11924;SDS011;6022;48.768;18.608;2023-02-11T17:59:54;8.50;;;4.90;;
11924;SDS011;6022;48.768;18.608;2023-02-11T18:02:33;8.07;;;4.13;;
11924;SDS011;6022;48.768;18.608;2023-02-11T18:05:00;6.00;;;4.70;;
11924;SDS011;6022;48.768;18.608;2023-02-11T18:07:44;5.77;;;3.93;;
11924;SDS011;6022;48.768;18.608;2023-02-11T18:10:15;7.63;;;5.00;;
11924;SDS011;6022;48.768;18.608;2023-02-11T18:12:55;8.47;;;5.57;;
11924;SDS011;6022;48.768;18.608;2023-02-11T18:15:23;10.63;;;4.77;;
11924;SDS011;6022;48.768;18.608;2023-02-11T18:17:57;10.10;;;5.53;;
11924;SDS011;6022;48.768;18.608;2023-02-11T18:20:27;15.97;;;8.03;;
11924;SDS011;6022;48.768;18.608;2023-02-11T18:23:08;11.40;;;5.93;;
11924;SDS011;6022;48.768;18.608;2023-02-11T18:25:42;10.27;;;7.00;;
11924;SDS011;6022;48.768;18.608;2023-02-11T18:28:10;8.43;;;4.33;;
11924;SDS011;6022;48.768;18.608;2023-02-11T18:30:37;18.53;;;6.93;;
11924;SDS011;6022;48.768;18.608;2023-02-11T18:33:06;8.50;;;4.20;;
11924;SDS011;6022;48.768;18.608;2023-02-11T18:35:52;12.53;;;5.97;;